Latest Weather Observations for Swan Island

IDT60801

Issued at 1:31 pm EST Monday 26 September 2016 (issued every 30 minutes, with the page automatically refreshed every 10 minutes)

About weather observations | Map of weather stations | Latest weather observations for TAS | Other Formats
Station Details ID: 092123 Name: SWAN ISLAND Lat: -40.73 Lon: 148.12 Height: 15.0 m
Data from the previous 72 hours. | See also: Recent months at Swan Island
Date/Time
EST
Temp
°C
App
Temp
°C
Dew
Point
°C
Rel
Hum
%
Delta-T
°C
Wind Press
QNH
hPa
Press
MSL
hPa
Rain since
9am
mm
Dir  Spd
km/h
Gust
km/h
Spd
kts
Gust
kts
26/01:30pm 13.0 9.3 6.4 64 3.2 WNW 15 20 8 11 1009.7 1009.8 0.0
26/01:00pm 14.3 10.1 5.9 57 4.0 W 17 26 9 14 1009.8 1009.9 0.0
26/12:30pm 13.2 9.4 5.9 61 3.4 WNW 15 22 8 12 1010.2 1010.3 0.0
26/12:00pm 14.8 11.1 6.1 56 4.2 W 15 22 8 12 1010.5 1010.6 0.0
26/11:30am 13.5 9.5 6.6 63 3.3 WNW 17 26 9 14 1010.7 1010.8 0.0
26/11:00am 12.9 9.1 5.8 62 3.3 W 15 20 8 11 1011.0 1011.0 0.0
26/10:30am 14.1 9.7 6.5 60 3.7 W 19 28 10 15 1011.3 1011.3 0.0
26/10:00am 13.4 9.3 6.0 61 3.5 W 17 26 9 14 1011.5 1011.5 0.0
26/09:30am 13.9 9.4 6.0 59 3.8 W 19 28 10 15 1011.6 1011.6 0.0
26/09:00am 13.0 8.3 5.2 59 3.6 W 19 26 10 14 1011.5 1011.5 0.0
26/08:30am 12.0 7.6 5.0 62 3.2 W 17 24 9 13 1011.6 1011.6 0.0
26/08:00am 11.6 7.3 5.3 65 2.9 W 17 24 9 13 1011.7 1011.7 0.0
26/07:30am 10.6 7.2 6.0 73 2.1 W 13 17 7 9 1011.6 1011.6 0.0
26/07:00am 9.6 7.4 6.0 78 1.7 WSW 7 13 4 7 1011.6 1011.6 0.0
26/06:30am 8.3 5.6 5.8 84 1.1 WSW 9 13 5 7 1011.4 1011.4 0.0
26/06:00am 8.1 5.9 6.1 87 0.9 WSW 7 11 4 6 1011.2 1011.2 0.0
26/05:30am 7.9 5.6 5.9 87 0.9 WSW 7 11 4 6 1011.1 1011.1 0.0
26/05:00am 8.0 5.3 5.6 85 1.1 WSW 9 13 5 7 1010.9 1010.9 0.0
26/04:30am 8.1 5.4 5.6 84 1.1 WSW 9 13 5 7 1010.6 1010.7 0.0
26/04:00am 8.3 5.6 5.8 84 1.1 WSW 9 11 5 6 1010.5 1010.6 0.0
26/03:30am 8.6 6.1 6.6 87 0.9 WSW 9 13 5 7 1010.6 1010.7 0.0
26/03:00am 9.2 6.9 7.6 90 0.8 WSW 9 13 5 7 1010.4 1010.5 0.0
26/02:30am 10.0 9.1 9.1 94 0.4 W 4 6 2 3 1010.5 1010.6 0.0
26/02:00am 10.3 10.1 9.2 93 0.5 CALM 0 2 0 1 1010.5 1010.6 0.0
26/01:30am 10.5 9.2 9.1 91 0.7 NNE 6 7 3 4 1010.7 1010.8 0.0
26/01:00am 11.3 10.4 9.2 87 1.1 NE 4 4 2 2 1010.9 1010.9 0.0
26/12:30am 11.5 10.7 9.8 89 0.9 NE 4 6 2 3 1010.7 1010.8 0.0
26/12:00am 11.1 9.9 9.4 89 0.9 ENE 6 7 3 4 1010.6 1010.7 0.0
 
Date/Time
EST
Temp
°C
App
Temp
°C
Dew
Point
°C
Rel
Hum
%
Delta-T
°C
Wind Press
QNH
hPa
Press
MSL
hPa
Rain since
9am
mm
Dir  Spd
km/h
Gust
km/h
Spd
kts
Gust
kts
25/11:30pm 11.2 9.9 9.8 91 0.7 E 7 9 4 5 1010.4 1010.5 0.0
25/11:00pm 11.2 9.4 9.6 90 0.8 ESE 9 11 5 6 1010.5 1010.6 0.0
25/10:30pm 11.1 9.3 9.4 89 0.9 ESE 9 13 5 7 1010.4 1010.5 0.0
25/10:00pm 11.2 9.2 8.6 84 1.3 ESE 9 13 5 7 1010.2 1010.3 0.0
25/09:30pm 11.4 9.6 9.3 87 1.1 ESE 9 13 5 7 1010.1 1010.2 0.0
25/09:00pm 11.7 9.4 8.9 83 1.4 ESE 11 13 6 7 1009.7 1009.8 0.0
25/08:30pm 11.8 10.4 8.8 82 1.5 E 6 7 3 4 1009.5 1009.6 0.0
25/08:00pm 11.8 9.4 8.6 81 1.6 ESE 11 15 6 8 1009.0 1009.1 0.0
25/07:30pm 11.4 9.7 7.7 78 1.8 SW 6 7 3 4 1008.6 1008.7 0.0
25/07:00pm 11.9 10.1 7.8 76 2.0 WSW 7 11 4 6 1008.0 1008.0 0.0
25/06:30pm 12.0 9.8 7.7 75 2.1 WSW 9 15 5 8 1007.7 1007.7 0.0
25/06:00pm 12.2 9.6 7.9 75 2.1 WSW 11 19 6 10 1007.4 1007.4 0.0
25/05:30pm 12.4 8.6 7.7 73 2.3 WSW 17 26 9 14 1007.0 1007.0 0.0
25/05:00pm 12.3 7.6 7.8 74 2.2 WSW 22 35 12 19 1006.8 1006.8 0.0
25/04:30pm 13.1 7.3 8.0 71 2.5 W 28 44 15 24 1006.1 1006.1 0.0
25/04:00pm 12.6 4.6 7.5 71 2.5 W 39 52 21 28 1005.6 1005.6 0.0
25/03:30pm 12.8 4.3 6.8 67 2.9 W 41 56 22 30 1005.3 1005.3 0.0
25/03:05pm 13.4 6.7 7.2 66 3.0 W 32 52 17 28 1005.2 1005.2 0.0
25/03:00pm 13.7 7.2 8.1 69 2.8 W 32 48 17 26 1005.2 1005.2 0.0
25/02:30pm 13.3 5.7 7.7 69 2.8 WNW 37 56 20 30 1004.8 1004.8 0.0
25/02:14pm 13.6 6.8 7.8 68 2.9 W 33 54 18 29 1004.9 1004.9 0.0
25/02:00pm 13.6 6.4 7.8 68 2.9 WNW 35 52 19 28 1005.0 1005.0 0.0
25/01:30pm 13.6 6.8 7.6 67 2.9 WNW 33 48 18 26 1005.0 1005.0 0.0
25/01:00pm 13.9 7.3 7.9 67 3.0 W 32 52 17 28 1005.0 1005.0 0.0
25/12:30pm 13.4 5.7 7.2 66 3.0 WNW 37 57 20 31 1004.8 1004.8 0.0
25/12:05pm 13.5 6.6 6.6 63 3.3 W 32 50 17 27 1004.8 1004.8 0.0
25/12:00pm 13.9 7.6 7.2 64 3.3 W 30 44 16 24 1004.8 1004.8 0.0
25/11:55am 14.0 7.9 8.2 68 2.9 W 30 48 16 26 1004.9 1004.9 0.0
25/11:30am 13.6 7.0 7.6 67 2.9 W 32 46 17 25 1004.7 1004.7 0.0
25/11:00am 13.7 7.2 8.3 70 2.7 WNW 32 43 17 23 1004.5 1004.5 0.0
25/10:30am 13.3 7.1 7.7 69 2.8 W 30 46 16 25 1004.4 1004.4 0.0
25/10:11am 13.4 6.7 8.0 70 2.7 W 33 54 18 29 1004.4 1004.4 0.0
25/10:00am 13.4 6.4 8.3 71 2.5 W 35 52 19 28 1004.2 1004.2 0.0
25/09:32am 13.2 5.7 7.9 70 2.6 W 37 57 20 31 1004.1 1004.1 0.0
25/09:30am 13.1 5.9 7.8 70 2.6 W 35 52 19 28 1004.1 1004.1 0.0
25/09:00am 12.9 6.6 7.6 70 2.6 W 30 50 16 27 1004.0 1004.0 26.4
25/08:55am 12.9 6.7 7.8 71 2.5 W 30 50 16 27 1004.0 1004.0 26.4
25/08:30am 12.6 6.3 9.1 79 1.8 W 32 46 17 25 1003.7 1003.7 26.4
25/08:10am 12.4 5.6 9.2 81 1.6 W 35 54 19 29 1003.3 1003.3 26.4
25/08:00am 12.2 5.7 8.9 80 1.7 W 33 50 18 27 1003.2 1003.2 26.4
25/07:58am 12.0 5.6 8.7 80 1.6 W 32 50 17 27 1003.2 1003.2 26.4
25/07:30am 11.6 5.8 9.3 86 1.2 W 30 44 16 24 1003.2 1003.2 26.4
25/07:00am 11.9 7.3 11.0 94 0.5 W 26 39 14 21 1003.0 1003.0 26.4
25/06:30am 12.6 8.1 11.5 93 0.6 NW 26 37 14 20 1002.8 1002.8 26.4
25/06:00am 12.4 9.1 11.5 94 0.5 WNW 20 28 11 15 1002.8 1002.8 26.4
25/05:30am 12.4 8.7 11.5 94 0.5 WNW 22 28 12 15 1002.7 1002.7 26.4
25/05:00am 12.5 9.2 11.7 95 0.4 WNW 20 30 11 16 1002.5 1002.5 26.4
25/04:30am 12.3 9.8 11.2 93 0.6 WNW 15 22 8 12 1002.3 1002.3 26.4
25/04:00am 12.5 9.8 11.7 95 0.4 WNW 17 22 9 12 1002.6 1002.6 26.4
25/03:30am 12.7 9.4 11.6 93 0.6 WNW 20 26 11 14 1002.6 1002.6 26.4
25/03:00am 12.9 8.5 11.6 92 0.7 NW 26 32 14 17 1002.9 1002.9 26.4
25/02:30am 12.8 9.2 12.0 95 0.4 NW 22 28 12 15 1003.2 1003.2 26.4
25/02:00am 12.8 11.1 12.3 97 0.3 NW 13 15 7 8 1003.5 1003.5 26.4
25/01:30am 12.5 11.9 12.2 98 0.2 NW 7 13 4 7 1003.9 1003.9 26.2
25/01:00am 11.8 11.4 11.2 96 0.3 NNW 4 4 2 2 1004.1 1004.1 26.2
25/12:30am 12.2 11.1 11.9 98 0.2 N 9 11 5 6 1004.2 1004.2 26.2
25/12:00am 12.1 11.4 11.9 99 0.1 NNW 7 9 4 5 1004.3 1004.3 26.2
 
Date/Time
EST
Temp
°C
App
Temp
°C
Dew
Point
°C
Rel
Hum
%
Delta-T
°C
Wind Press
QNH
hPa
Press
MSL
hPa
Rain since
9am
mm
Dir  Spd
km/h
Gust
km/h
Spd
kts
Gust
kts
24/11:30pm 11.9 11.3 11.7 99 0.1 N 6 7 3 4 1004.7 1004.7 26.2
24/11:00pm 11.8 11.5 11.6 99 0.1 NW 4 7 2 4 1005.3 1005.3 26.2
24/10:30pm 12.0 11.2 11.8 99 0.1 NNW 7 7 4 4 1005.5 1005.5 26.2
24/10:00pm 12.3 11.6 12.1 99 0.1 NNW 7 9 4 5 1005.8 1005.8 26.2
24/09:30pm 12.2 11.1 11.9 98 0.2 NW 9 11 5 6 1006.0 1006.0 26.2
24/09:00pm 12.4 11.7 12.1 98 0.2 WNW 7 7 4 4 1006.4 1006.4 26.2
24/08:30pm 12.5 12.0 12.0 97 0.3 WNW 6 7 3 4 1006.5 1006.5 26.2
24/08:00pm 12.8 12.2 12.3 97 0.3 NW 7 9 4 5 1006.6 1006.6 26.2
24/07:30pm 12.9 12.3 12.4 97 0.3 W 7 13 4 7 1006.4 1006.4 26.2
24/07:00pm 13.2 12.7 12.7 97 0.3 WNW 7 11 4 6 1006.5 1006.5 26.2
24/06:30pm 13.4 12.2 12.9 97 0.3 WNW 11 15 6 8 1006.3 1006.3 26.2
24/06:00pm 13.6 11.7 13.1 97 0.3 WNW 15 19 8 10 1006.5 1006.5 25.6
24/05:30pm 13.7 11.5 13.2 97 0.3 NW 17 24 9 13 1006.5 1006.5 25.6
24/05:00pm 13.9 12.2 13.6 98 0.2 NNE 15 20 8 11 1006.3 1006.3 25.6
24/04:30pm 13.9 11.2 13.4 97 0.3 NNE 20 26 11 14 1006.2 1006.2 25.6
24/04:00pm 13.9 11.4 13.4 97 0.3 NE 19 24 10 13 1006.2 1006.2 25.6
24/03:30pm 14.1 11.1 13.8 98 0.2 NE 22 28 12 15 1006.2 1006.2 25.6
24/03:00pm 13.8 10.8 13.6 99 0.1 NNE 22 32 12 17 1006.6 1006.6 25.6
24/02:30pm 13.9 11.5 13.7 99 0.1 NE 19 28 10 15 1006.9 1006.9 25.2
24/02:00pm 13.6 10.9 13.4 99 0.1 NNE 20 28 11 15 1007.2 1007.2 25.2
24/01:30pm 13.8 10.2 13.2 96 0.3 NNE 24 30 13 16 1007.5 1007.5 22.6
24/01:00pm 14.0 10.4 13.2 95 0.4 NE 24 30 13 16 1007.8 1007.8 22.0
24/12:30pm 13.9 13.3 13.4 97 0.3 NE 9 13 5 7 1008.5 1008.6 21.2
24/12:00pm 13.7 13.4 13.4 98 0.2 NE 7 13 4 7 1008.9 1009.0 20.2
24/11:30am 13.5 13.7 13.2 98 0.2 NNE 4 9 2 5 1009.4 1009.5 10.6
24/11:00am 13.8 13.7 13.2 96 0.3 NNE 6 15 3 8 1009.7 1009.8 4.6
24/10:30am 13.6 12.8 13.0 96 0.3 ENE 9 11 5 6 1010.2 1010.3 1.6
24/10:00am 14.3 14.0 12.7 90 0.9 ENE 6 7 3 4 1010.6 1010.7 0.0
24/09:30am 14.9 14.5 13.1 89 1.0 ENE 7 9 4 5 1010.9 1010.9 0.0
24/09:00am 14.0 13.6 12.9 93 0.6 NE 7 9 4 5 1011.3 1011.3 0.2
24/08:30am 13.7 13.0 13.1 96 0.3 NE 9 11 5 6 1011.5 1011.5 0.2
24/08:00am 13.3 11.3 12.8 97 0.3 NE 15 19 8 10 1011.6 1011.6 0.2
24/07:30am 13.2 11.6 12.7 97 0.3 ESE 13 15 7 8 1011.7 1011.7 0.2
24/07:00am 12.4 10.9 11.9 97 0.3 SE 11 15 6 8 1011.8 1011.8 0.2
24/06:30am 12.0 10.0 11.5 97 0.3 SE 13 17 7 9 1011.8 1011.8 0.0
24/06:00am 11.9 9.5 11.4 97 0.3 SE 15 19 8 10 1011.7 1011.7 0.0
24/05:30am 11.8 9.4 11.5 98 0.2 SE 15 20 8 11 1011.6 1011.6 0.0
24/05:00am 11.6 8.8 11.3 98 0.2 SE 17 22 9 12 1011.6 1011.6 0.0
24/04:30am 11.5 8.2 11.0 97 0.3 SE 19 20 10 11 1011.7 1011.7 0.0
24/04:00am 11.5 8.6 11.0 97 0.3 SE 17 20 9 11 1012.0 1012.0 0.0
24/03:30am 11.1 8.5 10.6 97 0.3 SE 15 19 8 10 1012.2 1012.2 0.0
24/03:00am 10.8 8.4 10.2 96 0.3 SSE 13 19 7 10 1012.6 1012.6 0.0
24/02:30am 10.9 8.6 10.3 96 0.3 SSE 13 17 7 9 1012.9 1012.9 0.0
24/02:00am 11.7 9.2 10.9 95 0.4 SE 15 19 8 10 1013.2 1013.2 0.0
24/01:30am 11.6 8.7 11.0 96 0.3 SE 17 20 9 11 1013.3 1013.3 0.0
24/01:00am 11.5 8.2 10.9 96 0.3 SE 19 22 10 12 1013.2 1013.2 0.0
24/12:30am 11.5 8.6 10.9 96 0.3 SE 17 20 9 11 1013.4 1013.4 0.0
24/12:00am 11.1 8.8 10.6 97 0.3 SSE 13 17 7 9 1013.6 1013.6 0.0
 
Date/Time
EST
Temp
°C
App
Temp
°C
Dew
Point
°C
Rel
Hum
%
Delta-T
°C
Wind Press
QNH
hPa
Press
MSL
hPa
Rain since
9am
mm
Dir  Spd
km/h
Gust
km/h
Spd
kts
Gust
kts
23/11:30pm 11.0 9.1 10.4 96 0.3 SSE 11 15 6 8 1014.1 1014.1 0.0
23/11:00pm 11.1 9.2 10.5 96 0.3 SSE 11 13 6 7 1014.4 1014.4 0.0
23/10:30pm 11.1 9.2 10.5 96 0.3 SSE 11 15 6 8 1014.5 1014.5 0.0
23/10:00pm 11.4 10.0 10.9 97 0.3 SSE 9 13 5 7 1014.8 1014.8 0.0
23/09:30pm 11.4 10.0 10.9 97 0.3 SE 9 11 5 6 1014.7 1014.7 0.0
23/09:00pm 11.5 10.1 11.0 97 0.3 SE 9 11 5 6 1014.8 1014.8 0.0
23/08:30pm 11.6 10.3 11.1 97 0.3 SE 9 9 5 5 1014.9 1014.9 0.0
23/08:00pm 11.7 10.8 11.2 97 0.3 SE 7 9 4 5 1015.0 1015.0 0.0
23/07:30pm 11.8 10.5 11.2 96 0.3 ESE 9 11 5 6 1014.9 1014.9 0.0
23/07:00pm 11.8 10.5 11.2 96 0.3 SE 9 11 5 6 1014.8 1014.8 0.0
23/06:30pm 12.0 10.7 11.2 95 0.4 SE 9 11 5 6 1014.7 1014.7 0.0
23/06:00pm 12.4 11.1 11.3 93 0.6 ESE 9 11 5 6 1014.6 1014.6 0.0
23/05:30pm 12.6 10.9 11.2 91 0.7 ESE 11 15 6 8 1014.5 1014.5 0.0
23/05:00pm 12.9 10.4 11.1 89 0.9 ESE 15 17 8 9 1014.4 1014.4 0.0
23/04:30pm 13.6 11.1 11.1 85 1.3 ESE 15 17 8 9 1014.4 1014.4 0.0
23/04:00pm 14.0 11.6 11.3 84 1.4 E 15 19 8 10 1014.3 1014.3 0.0
23/03:30pm 14.1 11.3 11.3 83 1.5 ESE 17 20 9 11 1014.5 1014.5 0.0
23/03:00pm 13.8 10.8 10.6 81 1.7 E 17 20 9 11 1014.7 1014.7 0.0
23/02:30pm 14.9 11.7 11.1 78 2.0 E 19 24 10 13 1014.8 1014.8 0.0
23/02:00pm 14.7 11.2 10.9 78 2.0 ESE 20 24 11 13 1015.0 1015.0 0.0

Other Formats:

Comma delimited format used in spreadsheet applications
http://www.bom.gov.au/fwo/IDT60801/IDT60801.95985.axf

JavaScript Object Notation format (JSON) in row-major order
http://www.bom.gov.au/fwo/IDT60801/IDT60801.95985.json